createdAt,value
2018-12-21T00:00:20.732Z,6.81
2018-12-21T00:02:13.498Z,6.82
2018-12-21T00:03:13.420Z,6.73
2018-12-21T00:05:06.241Z,6.73
2018-12-21T00:06:06.164Z,6.73
2018-12-21T00:07:59.945Z,6.60
2018-12-21T00:08:59.895Z,6.60
2018-12-21T00:10:52.700Z,6.60
2018-12-21T00:11:52.536Z,6.54
2018-12-21T00:13:45.330Z,6.48
2018-12-21T00:14:45.249Z,6.51
2018-12-21T00:16:38.007Z,6.48
2018-12-21T00:17:38.116Z,6.40
2018-12-21T00:19:30.821Z,6.39
2018-12-21T00:20:30.665Z,6.39
2018-12-21T00:22:23.573Z,6.36
2018-12-21T00:23:23.411Z,6.36
2018-12-21T00:25:16.185Z,6.35
2018-12-21T00:26:16.119Z,6.25
2018-12-21T00:28:08.933Z,6.39
2018-12-21T00:29:08.835Z,6.33
2018-12-21T00:31:01.614Z,6.32
2018-12-21T00:32:01.568Z,6.32
2018-12-21T00:33:54.265Z,6.25
2018-12-21T00:34:54.185Z,6.21
2018-12-21T00:36:46.943Z,6.25
2018-12-21T00:37:46.881Z,6.21
2018-12-21T00:39:39.616Z,6.20
2018-12-21T00:40:39.625Z,6.17
2018-12-21T00:42:32.329Z,6.21
2018-12-21T00:43:32.245Z,6.25
2018-12-21T00:45:24.995Z,6.27
2018-12-21T00:46:24.926Z,6.25
2018-12-21T00:48:17.763Z,6.19
2018-12-21T00:49:17.681Z,6.27
2018-12-21T00:51:10.472Z,6.39
2018-12-21T00:52:10.398Z,6.33
2018-12-21T00:54:03.191Z,6.35
2018-12-21T00:55:03.083Z,6.24
2018-12-21T00:56:55.872Z,6.25
2018-12-21T00:57:55.769Z,6.36
2018-12-21T00:59:48.595Z,6.36
2018-12-21T01:00:48.472Z,6.30
2018-12-21T01:02:41.220Z,6.39
2018-12-21T01:03:41.161Z,6.39
2018-12-21T01:05:33.898Z,6.38
2018-12-21T01:06:33.820Z,6.36
2018-12-21T01:08:26.601Z,6.32
2018-12-21T01:09:26.507Z,6.39
2018-12-21T01:11:19.327Z,6.32
2018-12-21T01:12:19.247Z,6.25
2018-12-21T01:14:12.002Z,6.28
2018-12-21T01:15:11.920Z,6.30
2018-12-21T01:17:04.710Z,6.35
2018-12-21T01:18:04.613Z,6.32
2018-12-21T01:19:57.414Z,6.32
2018-12-21T01:20:57.338Z,6.32
2018-12-21T01:22:50.118Z,6.36
2018-12-21T01:23:50.041Z,6.25
2018-12-21T01:25:42.787Z,6.35
2018-12-21T01:26:42.718Z,6.36
2018-12-21T01:28:35.477Z,6.42
2018-12-21T01:29:35.402Z,6.39
2018-12-21T01:31:28.181Z,6.46
2018-12-21T01:32:28.109Z,6.40
2018-12-21T01:34:20.877Z,6.50
2018-12-21T01:35:20.794Z,6.50
2018-12-21T01:37:13.574Z,6.46
2018-12-21T01:38:13.503Z,6.54
2018-12-21T01:40:06.263Z,6.48
2018-12-21T01:41:06.184Z,6.48
2018-12-21T01:42:59.895Z,6.51
2018-12-21T01:43:59.818Z,6.55
2018-12-21T01:45:52.560Z,6.46
2018-12-21T01:46:52.561Z,6.51
2018-12-21T01:48:45.258Z,6.48
2018-12-21T01:49:45.183Z,6.53
2018-12-21T01:51:37.938Z,6.48
2018-12-21T01:52:37.934Z,6.50
2018-12-21T01:54:30.672Z,6.53
2018-12-21T01:55:30.591Z,6.55
2018-12-21T01:57:23.392Z,6.50
2018-12-21T01:58:23.322Z,6.46
2018-12-21T02:00:16.125Z,6.48
2018-12-21T02:01:16.077Z,6.48
2018-12-21T02:03:08.813Z,6.48
2018-12-21T02:04:08.754Z,6.50
2018-12-21T02:06:01.513Z,6.46
2018-12-21T02:07:01.431Z,6.53
2018-12-21T02:08:54.196Z,6.46
2018-12-21T02:09:54.124Z,6.50
2018-12-21T02:11:46.877Z,6.50
2018-12-21T02:12:46.802Z,6.45
2018-12-21T02:14:39.673Z,6.51
2018-12-21T02:15:39.572Z,6.53
2018-12-21T02:17:32.348Z,6.50
2018-12-21T02:18:32.256Z,6.48
2018-12-21T02:20:25.089Z,6.57
2018-12-21T02:21:25.010Z,6.51
2018-12-21T02:23:17.770Z,6.54
2018-12-21T02:24:17.710Z,6.57
2018-12-21T02:26:10.497Z,6.60
2018-12-21T02:27:10.393Z,6.57
2018-12-21T02:29:03.158Z,6.58
2018-12-21T02:30:03.070Z,6.63
2018-12-21T02:31:55.826Z,6.58
2018-12-21T02:32:55.758Z,6.60
2018-12-21T02:34:48.538Z,6.69
2018-12-21T02:35:48.456Z,6.58
2018-12-21T02:37:41.246Z,6.72
2018-12-21T02:38:41.154Z,6.65
2018-12-21T02:40:34.157Z,6.72
2018-12-21T02:41:33.898Z,6.58
2018-12-21T02:43:26.663Z,6.75
2018-12-21T02:44:26.596Z,6.71
2018-12-21T02:46:19.369Z,6.73
2018-12-21T02:47:19.304Z,6.79
2018-12-21T02:49:12.145Z,6.64
2018-12-21T02:50:12.060Z,6.78
2018-12-21T02:52:05.737Z,6.78
2018-12-21T02:53:04.739Z,6.69
2018-12-21T02:54:57.540Z,6.68
2018-12-21T02:55:57.456Z,6.68
2018-12-21T02:57:50.223Z,6.79
2018-12-21T02:58:50.160Z,6.81
2018-12-21T03:00:42.943Z,6.78
2018-12-21T03:01:42.863Z,6.83
2018-12-21T03:03:35.673Z,6.78
2018-12-21T03:04:35.542Z,6.78
2018-12-21T03:06:28.411Z,6.69
2018-12-21T03:07:28.280Z,6.76
2018-12-21T03:09:21.064Z,6.63
2018-12-21T03:10:20.984Z,6.73
2018-12-21T03:12:13.768Z,6.79
2018-12-21T03:13:13.693Z,6.73
2018-12-21T03:15:06.451Z,6.65
2018-12-21T03:16:06.372Z,6.65
2018-12-21T03:17:59.150Z,6.68
2018-12-21T03:18:59.804Z,6.76
2018-12-21T03:20:51.898Z,6.76
2018-12-21T03:21:52.027Z,6.64
2018-12-21T03:23:44.567Z,6.72
2018-12-21T03:24:44.500Z,6.75
2018-12-21T03:26:37.423Z,6.72
2018-12-21T03:27:37.358Z,6.72
2018-12-21T03:29:30.126Z,6.72
2018-12-21T03:30:30.075Z,6.69
2018-12-21T03:32:23.006Z,6.63
2018-12-21T03:33:22.768Z,6.65
2018-12-21T03:35:15.621Z,6.72
2018-12-21T03:36:15.495Z,6.64
2018-12-21T03:38:08.291Z,6.64
2018-12-21T03:39:08.192Z,6.64
2018-12-21T03:41:01.106Z,6.71
2018-12-21T03:42:00.873Z,6.57
2018-12-21T03:43:53.796Z,6.69
2018-12-21T03:44:53.643Z,6.65
2018-12-21T03:46:46.426Z,6.63
2018-12-21T03:47:46.389Z,6.57
2018-12-21T03:49:39.090Z,6.60
2018-12-21T03:50:39.021Z,6.69
2018-12-21T03:52:31.813Z,6.58
2018-12-21T03:53:31.699Z,6.60
2018-12-21T03:55:24.511Z,6.61
2018-12-21T03:56:24.573Z,6.58
2018-12-21T03:58:17.159Z,6.61
2018-12-21T03:59:17.091Z,6.60
2018-12-21T04:01:09.998Z,6.71
2018-12-21T04:02:09.924Z,6.61
2018-12-21T04:04:02.741Z,6.68
2018-12-21T04:05:02.834Z,6.69
2018-12-21T04:06:55.443Z,6.63
2018-12-21T04:07:55.355Z,6.63
2018-12-21T04:09:48.115Z,6.72
2018-12-21T04:10:48.046Z,6.78
2018-12-21T04:12:40.893Z,6.82
2018-12-21T04:13:40.855Z,6.68
2018-12-21T04:15:33.704Z,6.63
2018-12-21T04:16:33.534Z,6.71
2018-12-21T04:18:26.351Z,6.69
2018-12-21T04:19:26.315Z,6.73
2018-12-21T04:21:19.068Z,6.75
2018-12-21T04:22:19.181Z,6.79
2018-12-21T04:24:11.765Z,6.75
2018-12-21T04:25:11.677Z,6.76
2018-12-21T04:27:04.561Z,6.76
2018-12-21T04:28:04.420Z,6.82
2018-12-21T04:29:57.150Z,6.79
2018-12-21T04:30:57.095Z,6.75
2018-12-21T04:32:50.903Z,6.81
2018-12-21T04:33:50.779Z,6.78
2018-12-21T04:35:43.559Z,6.73
2018-12-21T04:36:43.549Z,6.75
2018-12-21T04:38:37.162Z,6.90
2018-12-21T04:39:36.397Z,6.76
2018-12-21T04:41:29.068Z,6.91
2018-12-21T04:42:29.029Z,6.86
2018-12-21T04:44:21.764Z,6.89
2018-12-21T04:45:21.686Z,6.94
2018-12-21T04:47:14.455Z,6.94
2018-12-21T04:48:14.369Z,6.90
2018-12-21T04:50:07.133Z,6.89
2018-12-21T04:51:07.085Z,6.94
2018-12-21T04:52:59.817Z,6.86
2018-12-21T04:53:59.785Z,6.89
2018-12-21T04:55:52.548Z,6.90
2018-12-21T04:56:52.420Z,6.90
2018-12-21T04:58:45.194Z,6.91
2018-12-21T04:59:45.187Z,6.86
2018-12-21T05:01:37.856Z,6.89
2018-12-21T05:02:37.793Z,6.83
2018-12-21T05:04:30.719Z,6.91
2018-12-21T05:05:30.458Z,6.79
2018-12-21T05:07:23.252Z,6.89
2018-12-21T05:08:23.150Z,6.76
2018-12-21T05:10:15.917Z,6.83
2018-12-21T05:11:15.873Z,6.79
2018-12-21T05:13:08.680Z,6.78
2018-12-21T05:14:08.579Z,6.79
2018-12-21T05:16:01.334Z,6.86
2018-12-21T05:17:01.345Z,6.78
2018-12-21T05:18:54.056Z,6.87
2018-12-21T05:19:53.906Z,6.87
2018-12-21T05:21:46.666Z,6.90
2018-12-21T05:22:52.158Z,6.91
2018-12-21T05:24:39.341Z,6.89
2018-12-21T05:25:39.312Z,6.90
2018-12-21T05:27:32.014Z,6.90
2018-12-21T05:28:31.943Z,6.91
2018-12-21T05:30:24.801Z,6.91
2018-12-21T05:31:28.501Z,6.83
2018-12-21T05:33:17.496Z,6.94
2018-12-21T05:34:17.449Z,6.86
2018-12-21T05:36:10.180Z,6.90
2018-12-21T05:37:10.106Z,6.82
2018-12-21T05:39:02.880Z,6.90
2018-12-21T05:40:02.800Z,6.89
2018-12-21T05:41:55.544Z,6.94
2018-12-21T05:42:55.507Z,6.94
2018-12-21T05:44:48.242Z,6.86
2018-12-21T05:45:48.254Z,6.89
2018-12-21T05:47:41.010Z,6.89
2018-12-21T05:48:40.928Z,6.86
2018-12-21T05:50:33.731Z,6.94
2018-12-21T05:51:33.691Z,6.86
2018-12-21T05:53:26.709Z,6.94
2018-12-21T05:54:26.620Z,6.90
2018-12-21T05:56:19.165Z,6.90
2018-12-21T05:57:19.121Z,6.78
2018-12-21T05:59:12.453Z,6.89
2018-12-21T06:00:12.279Z,6.90
2018-12-21T06:02:05.486Z,6.89
2018-12-21T06:03:05.002Z,6.93
2018-12-21T06:04:57.941Z,6.83
2018-12-21T06:05:57.704Z,6.90
2018-12-21T06:07:50.582Z,6.90
2018-12-21T06:08:50.488Z,6.91
2018-12-21T06:10:43.282Z,6.96
2018-12-21T06:11:43.206Z,6.89
2018-12-21T06:13:35.956Z,6.93
2018-12-21T06:14:35.915Z,6.94
2018-12-21T06:16:28.651Z,6.86
2018-12-21T06:17:28.564Z,6.96
2018-12-21T06:19:21.564Z,6.97
2018-12-21T06:20:22.137Z,7.00
2018-12-21T06:22:14.058Z,7.00
2018-12-21T06:23:13.984Z,7.05
2018-12-21T06:25:06.753Z,6.94
2018-12-21T06:26:06.672Z,6.89
2018-12-21T06:27:59.450Z,7.00
2018-12-21T06:28:59.445Z,6.97
2018-12-21T06:30:52.158Z,7.01
2018-12-21T06:31:52.073Z,7.01
2018-12-21T06:33:44.841Z,6.97
2018-12-21T06:34:44.768Z,6.94
2018-12-21T06:36:37.702Z,6.91
2018-12-21T06:37:37.466Z,6.86
2018-12-21T06:39:30.229Z,6.91
2018-12-21T06:40:30.156Z,6.99
2018-12-21T06:42:22.945Z,6.97
2018-12-21T06:43:23.033Z,6.99
2018-12-21T06:45:15.760Z,6.97
2018-12-21T06:46:15.603Z,6.97
2018-12-21T06:48:08.364Z,7.00
2018-12-21T06:49:08.291Z,7.05
2018-12-21T06:51:01.064Z,7.00
2018-12-21T06:52:00.986Z,6.99
2018-12-21T06:53:53.848Z,7.08
2018-12-21T06:54:53.715Z,7.09
2018-12-21T06:56:46.493Z,7.08
2018-12-21T06:57:46.485Z,7.14
2018-12-21T06:59:39.297Z,7.05
2018-12-21T07:00:39.136Z,7.09
2018-12-21T07:02:31.959Z,7.08
2018-12-21T07:03:31.845Z,7.05
2018-12-21T07:05:24.639Z,7.14
2018-12-21T07:06:24.536Z,7.07
2018-12-21T07:08:17.359Z,7.21
2018-12-21T07:09:17.291Z,7.19
2018-12-21T07:11:10.059Z,7.16
2018-12-21T07:12:09.972Z,7.15
2018-12-21T07:14:02.775Z,7.21
2018-12-21T07:15:02.822Z,7.18
2018-12-21T07:16:55.455Z,7.14
2018-12-21T07:17:55.401Z,7.18
2018-12-21T07:19:48.123Z,7.19
2018-12-21T07:20:48.057Z,7.18
2018-12-21T07:22:40.849Z,7.16
2018-12-21T07:23:40.755Z,7.12
2018-12-21T07:25:33.547Z,7.18
2018-12-21T07:26:33.687Z,7.18
2018-12-21T07:28:26.262Z,7.18
2018-12-21T07:29:26.170Z,7.23
2018-12-21T07:31:18.938Z,7.21
2018-12-21T07:32:18.853Z,7.15
2018-12-21T07:34:11.640Z,7.24
2018-12-21T07:35:11.630Z,7.16
2018-12-21T07:37:04.329Z,7.18
2018-12-21T07:38:04.261Z,7.16
2018-12-21T07:39:57.029Z,7.12
2018-12-21T07:40:56.967Z,7.21
2018-12-21T07:42:49.806Z,7.29
2018-12-21T07:43:49.726Z,7.24
2018-12-21T07:45:42.500Z,7.16
2018-12-21T07:46:42.425Z,7.26
2018-12-21T07:48:35.199Z,7.29
2018-12-21T07:49:35.118Z,7.26
2018-12-21T07:51:27.931Z,7.30
2018-12-21T07:52:27.823Z,7.32
2018-12-21T07:54:20.582Z,7.34
2018-12-21T07:55:20.510Z,7.29
2018-12-21T07:57:13.291Z,7.26
2018-12-21T07:58:13.208Z,7.39
2018-12-21T08:00:05.968Z,7.33
2018-12-21T08:01:05.892Z,7.32
2018-12-21T08:02:58.660Z,7.34
2018-12-21T08:03:58.600Z,7.36
2018-12-21T08:05:51.336Z,7.39
2018-12-21T08:06:51.268Z,7.36
2018-12-21T08:08:44.055Z,7.33
2018-12-21T08:09:43.950Z,7.33
2018-12-21T08:11:36.708Z,7.33
2018-12-21T08:12:36.633Z,7.33
2018-12-21T08:14:29.441Z,7.29
2018-12-21T08:15:29.358Z,7.33
2018-12-21T08:17:22.138Z,7.37
2018-12-21T08:18:22.056Z,7.41
2018-12-21T08:20:14.928Z,7.41
2018-12-21T08:21:14.838Z,7.42
2018-12-21T08:23:07.814Z,7.44
2018-12-21T08:24:07.671Z,7.37
2018-12-21T08:26:00.527Z,7.44
2018-12-21T08:27:00.447Z,7.45
2018-12-21T08:28:54.809Z,7.48
2018-12-21T08:29:54.720Z,7.39
2018-12-21T08:31:48.253Z,7.42
2018-12-21T08:32:48.053Z,7.41
2018-12-21T08:34:41.126Z,7.48
2018-12-21T08:35:40.804Z,7.42
2018-12-21T08:37:34.460Z,7.47
2018-12-21T08:38:34.195Z,7.47
2018-12-21T08:40:27.567Z,7.45
2018-12-21T08:41:27.197Z,7.42
2018-12-21T08:43:20.028Z,7.47
2018-12-21T08:44:19.935Z,7.45
2018-12-21T08:46:12.845Z,7.42
2018-12-21T08:47:12.703Z,7.42
2018-12-21T08:49:06.272Z,7.37
2018-12-21T08:50:06.126Z,7.42
2018-12-21T08:51:58.946Z,7.45
2018-12-21T08:52:58.968Z,7.44
2018-12-21T08:54:52.316Z,7.45
2018-12-21T08:55:52.238Z,7.42
2018-12-21T08:57:45.184Z,7.42
2018-12-21T08:58:45.163Z,7.44
2018-12-21T09:00:38.938Z,7.48
2018-12-21T09:01:38.629Z,7.55
2018-12-21T09:03:31.660Z,7.57
2018-12-21T09:04:32.377Z,7.55
2018-12-21T09:06:26.476Z,7.45
2018-12-21T09:07:26.149Z,7.47
2018-12-21T09:09:19.118Z,7.55
2018-12-21T09:10:19.057Z,7.55
2018-12-21T09:12:10.930Z,7.55
2018-12-21T09:13:10.674Z,7.60
2018-12-21T09:15:03.885Z,7.60
2018-12-21T09:16:03.626Z,7.58
2018-12-21T09:17:56.387Z,7.66
2018-12-21T09:18:56.327Z,7.63
2018-12-21T09:20:49.921Z,7.63
2018-12-21T09:21:49.985Z,7.63
2018-12-21T09:23:43.789Z,7.67
2018-12-21T09:24:44.222Z,7.69
2018-12-21T09:26:37.129Z,7.67
2018-12-21T09:27:36.972Z,7.69
2018-12-21T09:29:31.875Z,7.62
2018-12-21T09:30:30.270Z,7.67
2018-12-21T09:32:23.192Z,7.76
2018-12-21T09:33:23.235Z,7.70
2018-12-21T09:35:16.164Z,7.70
2018-12-21T09:36:15.893Z,7.73
2018-12-21T09:38:09.825Z,7.76
2018-12-21T09:39:10.450Z,7.81
2018-12-21T09:41:02.500Z,7.84
2018-12-21T09:42:02.324Z,7.88
2018-12-21T09:43:55.644Z,7.81
2018-12-21T09:44:55.337Z,7.86
2018-12-21T09:46:48.080Z,7.88
2018-12-21T09:47:48.019Z,7.92
2018-12-21T09:49:40.911Z,7.91
2018-12-21T09:50:40.790Z,7.84
2018-12-21T09:52:33.554Z,7.99
2018-12-21T09:53:33.471Z,7.99
2018-12-21T09:55:26.280Z,7.94
2018-12-21T09:56:26.166Z,8.02
2018-12-21T09:58:18.992Z,8.02
2018-12-21T09:59:18.867Z,8.04
2018-12-21T10:01:10.865Z,8.09
2018-12-21T10:02:10.754Z,8.10
2018-12-21T10:04:03.556Z,8.10
2018-12-21T10:05:03.468Z,8.06
2018-12-21T10:06:56.259Z,8.29
2018-12-21T10:07:56.157Z,8.27
2018-12-21T10:09:49.045Z,8.29
2018-12-21T10:10:50.603Z,8.27
2018-12-21T10:12:40.840Z,8.27
2018-12-21T10:13:40.774Z,8.34
2018-12-21T10:15:33.633Z,8.27
2018-12-21T10:16:33.513Z,8.27
2018-12-21T10:18:26.362Z,8.20
2018-12-21T10:19:26.251Z,8.31
2018-12-21T10:21:19.167Z,8.24
2018-12-21T10:22:19.076Z,8.21
2018-12-21T10:24:18.422Z,8.32
2018-12-21T10:25:11.816Z,8.31
2018-12-21T10:27:04.545Z,8.29
2018-12-21T10:28:04.476Z,8.27
2018-12-21T10:29:57.255Z,8.34
2018-12-21T10:30:57.167Z,8.34
2018-12-21T10:32:49.951Z,8.40
2018-12-21T10:33:49.887Z,8.29
2018-12-21T10:35:42.682Z,8.34
2018-12-21T10:36:42.600Z,8.31
2018-12-21T10:38:35.796Z,8.42
2018-12-21T10:39:35.709Z,8.36
2018-12-21T10:41:28.498Z,8.40
2018-12-21T10:42:28.404Z,8.39
2018-12-21T10:44:21.289Z,8.39
2018-12-21T10:45:21.190Z,8.40
2018-12-21T10:47:13.997Z,8.46
2018-12-21T10:48:14.190Z,8.49
2018-12-21T10:50:06.692Z,8.40
2018-12-21T10:51:06.634Z,8.40
2018-12-21T10:52:59.445Z,8.43
2018-12-21T10:53:59.427Z,8.47
2018-12-21T10:55:52.199Z,8.50
2018-12-21T10:56:52.128Z,8.55
2018-12-21T10:58:45.564Z,8.46
2018-12-21T10:59:44.839Z,8.42
2018-12-21T11:01:37.619Z,8.42
2018-12-21T11:02:37.883Z,8.49
2018-12-21T11:04:30.366Z,8.42
2018-12-21T11:05:30.291Z,8.42
2018-12-21T11:07:23.213Z,8.39
2018-12-21T11:08:23.124Z,8.42
2018-12-21T11:10:15.985Z,8.43
2018-12-21T11:11:15.825Z,8.46
2018-12-21T11:13:08.694Z,8.54
2018-12-21T11:14:08.677Z,8.45
2018-12-21T11:16:01.456Z,8.63
2018-12-21T11:17:01.355Z,8.47
2018-12-21T11:18:54.147Z,8.60
2018-12-21T11:19:54.051Z,8.63
2018-12-21T11:21:46.936Z,8.52
2018-12-21T11:22:46.845Z,8.58
2018-12-21T11:24:39.573Z,8.55
2018-12-21T11:25:39.548Z,8.55
2018-12-21T11:27:32.296Z,8.63
2018-12-21T11:28:32.238Z,8.67
2018-12-21T11:30:25.043Z,8.61
2018-12-21T11:31:24.938Z,8.68
2018-12-21T11:33:17.860Z,8.67
2018-12-21T11:34:17.641Z,8.55
2018-12-21T11:36:10.541Z,8.61
2018-12-21T11:37:10.504Z,8.55
2018-12-21T11:39:03.278Z,8.47
2018-12-21T11:40:03.232Z,8.46
2018-12-21T11:41:56.110Z,8.46
2018-12-21T11:42:55.921Z,8.46
2018-12-21T11:44:48.888Z,8.57
2018-12-21T11:45:48.650Z,8.46
2018-12-21T11:47:41.536Z,8.57
2018-12-21T11:48:41.344Z,8.47
2018-12-21T11:50:34.199Z,8.47
2018-12-21T11:51:34.031Z,8.54
2018-12-21T11:53:27.000Z,8.47
2018-12-21T11:54:26.867Z,8.45
2018-12-21T11:56:19.748Z,8.46
2018-12-21T11:57:19.687Z,8.50
2018-12-21T11:59:12.339Z,8.49
2018-12-21T12:00:12.510Z,8.47
2018-12-21T12:02:05.080Z,8.50
2018-12-21T12:03:05.015Z,8.50
2018-12-21T12:04:57.783Z,8.49
2018-12-21T12:05:57.738Z,8.57
2018-12-21T12:07:50.485Z,8.60
2018-12-21T12:08:50.412Z,8.65
2018-12-21T12:10:43.258Z,8.60
2018-12-21T12:11:43.130Z,8.58
2018-12-21T12:13:36.039Z,8.58
2018-12-21T12:14:35.808Z,8.54
2018-12-21T12:16:29.081Z,8.61
2018-12-21T12:17:28.611Z,8.58
2018-12-21T12:19:20.557Z,8.61
2018-12-21T12:20:20.580Z,8.58
2018-12-21T12:22:13.327Z,8.60
2018-12-21T12:23:13.183Z,8.61
2018-12-21T12:25:06.088Z,8.55
2018-12-21T12:26:05.865Z,8.47
2018-12-21T12:27:58.626Z,8.50
2018-12-21T12:28:58.548Z,8.50
2018-12-21T12:30:51.379Z,8.55
2018-12-21T12:31:51.290Z,8.49
2018-12-21T12:33:44.089Z,8.45
2018-12-21T12:34:44.003Z,8.45
2018-12-21T12:36:36.843Z,8.43
2018-12-21T12:37:36.692Z,8.42
2018-12-21T12:39:30.012Z,8.42
2018-12-21T12:40:29.886Z,8.36
2018-12-21T12:42:22.733Z,8.27
2018-12-21T12:43:22.750Z,8.34
2018-12-21T12:45:15.414Z,8.28
2018-12-21T12:46:15.364Z,8.28
2018-12-21T12:48:08.131Z,8.31
2018-12-21T12:49:08.043Z,8.34
2018-12-21T12:51:00.840Z,8.27
2018-12-21T12:52:00.866Z,8.31
2018-12-21T12:53:53.499Z,8.29
2018-12-21T12:55:02.306Z,8.25
2018-12-21T12:56:46.254Z,8.22
2018-12-21T12:57:46.411Z,8.31
2018-12-21T12:59:39.193Z,8.17
2018-12-21T13:00:38.881Z,8.17
2018-12-21T13:02:31.684Z,8.20
2018-12-21T13:03:31.612Z,8.14
2018-12-21T13:05:24.409Z,8.12
2018-12-21T13:06:24.326Z,8.07
2018-12-21T13:08:17.140Z,8.07
2018-12-21T13:09:17.016Z,8.10
2018-12-21T13:11:09.829Z,8.03
2018-12-21T13:12:09.736Z,7.95
2018-12-21T13:14:02.485Z,8.00
2018-12-21T13:15:02.401Z,7.91
2018-12-21T13:16:56.099Z,7.95
2018-12-21T13:17:55.974Z,7.91
2018-12-21T13:19:48.771Z,7.94
2018-12-21T13:20:48.680Z,7.91
2018-12-21T13:22:41.516Z,7.92
2018-12-21T13:23:41.376Z,7.91
2018-12-21T13:25:34.213Z,7.84
2018-12-21T13:26:34.081Z,7.79
2018-12-21T13:28:27.052Z,7.81
2018-12-21T13:29:26.824Z,7.74
2018-12-21T13:31:19.717Z,7.77
2018-12-21T13:32:19.608Z,7.77
2018-12-21T13:34:12.445Z,7.82
2018-12-21T13:35:12.295Z,7.69
2018-12-21T13:37:05.236Z,7.76
2018-12-21T13:38:05.127Z,7.73
2018-12-21T13:39:58.008Z,7.71
2018-12-21T13:40:57.830Z,7.76
2018-12-21T13:42:50.760Z,7.74
2018-12-21T13:43:50.588Z,7.70
2018-12-21T13:45:43.372Z,7.74
2018-12-21T13:46:43.274Z,7.70
2018-12-21T13:48:36.102Z,7.74
2018-12-21T13:49:35.986Z,7.71
2018-12-21T13:51:28.784Z,7.76
2018-12-21T13:52:28.717Z,7.79
2018-12-21T13:54:21.604Z,7.74
2018-12-21T13:55:21.517Z,7.79
2018-12-21T13:57:14.306Z,7.76
2018-12-21T13:58:14.197Z,7.73
2018-12-21T14:00:07.078Z,7.74
2018-12-21T14:01:07.010Z,7.77
2018-12-21T14:02:59.917Z,7.73
2018-12-21T14:03:59.698Z,7.73
2018-12-21T14:05:52.555Z,7.77
2018-12-21T14:06:52.435Z,7.81
2018-12-21T14:08:45.194Z,7.74
2018-12-21T14:09:45.118Z,7.73
2018-12-21T14:11:37.869Z,7.63
2018-12-21T14:12:37.872Z,7.76
2018-12-21T14:14:30.692Z,7.74
2018-12-21T14:15:30.488Z,7.70
2018-12-21T14:17:23.296Z,7.74
2018-12-21T14:18:23.240Z,7.81
2018-12-21T14:20:16.052Z,7.71
2018-12-21T14:21:15.980Z,7.70
2018-12-21T14:23:08.729Z,7.73
2018-12-21T14:24:08.676Z,7.67
2018-12-21T14:26:01.497Z,7.63
2018-12-21T14:27:01.477Z,7.66
2018-12-21T14:28:54.172Z,7.69
2018-12-21T14:29:54.116Z,7.67
2018-12-21T14:31:46.903Z,7.62
2018-12-21T14:32:46.824Z,7.62
2018-12-21T14:34:39.608Z,7.62
2018-12-21T14:35:39.520Z,7.60
2018-12-21T14:37:32.306Z,7.62
2018-12-21T14:38:32.220Z,7.67
2018-12-21T14:40:24.992Z,7.63
2018-12-21T14:41:25.530Z,7.62
2018-12-21T14:43:17.729Z,7.63
2018-12-21T14:44:17.632Z,7.74
2018-12-21T14:46:11.289Z,7.62
2018-12-21T14:47:11.166Z,7.57
2018-12-21T14:49:03.956Z,7.69
2018-12-21T14:50:03.872Z,7.60
2018-12-21T14:51:56.677Z,7.69
2018-12-21T14:52:56.571Z,7.62
2018-12-21T14:54:49.381Z,7.57
2018-12-21T14:55:49.296Z,7.58
2018-12-21T14:57:42.061Z,7.60
2018-12-21T14:58:42.035Z,7.62
2018-12-21T15:00:34.782Z,7.67
2018-12-21T15:01:34.695Z,7.55
2018-12-21T15:03:27.454Z,7.66
2018-12-21T15:04:27.391Z,7.60
2018-12-21T15:06:20.160Z,7.54
2018-12-21T15:07:20.077Z,7.55
2018-12-21T15:09:12.854Z,7.55
2018-12-21T15:10:12.889Z,7.48
2018-12-21T15:12:05.555Z,7.47
2018-12-21T15:13:05.471Z,7.50
2018-12-21T15:14:58.253Z,7.54
2018-12-21T15:15:58.162Z,7.50
2018-12-21T15:17:50.987Z,7.45
2018-12-21T15:18:50.920Z,7.50
2018-12-21T15:20:43.688Z,7.44
2018-12-21T15:21:43.608Z,7.48
2018-12-21T15:23:36.357Z,7.45
2018-12-21T15:24:36.286Z,7.48
2018-12-21T15:26:29.051Z,7.54
2018-12-21T15:27:28.975Z,7.48
2018-12-21T15:29:21.745Z,7.52
2018-12-21T15:30:21.673Z,7.47
2018-12-21T15:32:14.461Z,7.51
2018-12-21T15:33:14.377Z,7.55
2018-12-21T15:35:07.166Z,7.50
2018-12-21T15:36:07.065Z,7.55
2018-12-21T15:38:00.317Z,7.54
2018-12-21T15:39:00.251Z,7.55
2018-12-21T15:40:53.027Z,7.60
2018-12-21T15:41:52.950Z,7.52
2018-12-21T15:43:45.709Z,7.67
2018-12-21T15:44:45.642Z,7.54
2018-12-21T15:46:38.426Z,7.60
2018-12-21T15:47:38.340Z,7.55
2018-12-21T15:49:31.111Z,7.57
2018-12-21T15:50:31.047Z,7.57
2018-12-21T15:52:23.817Z,7.69
2018-12-21T15:53:23.731Z,7.69
2018-12-21T15:55:16.524Z,7.67
2018-12-21T15:56:16.435Z,7.69
2018-12-21T15:58:09.212Z,7.63
2018-12-21T15:59:09.136Z,7.66
2018-12-21T16:01:01.929Z,7.57
2018-12-21T16:02:01.821Z,7.62
2018-12-21T16:03:54.590Z,7.62
2018-12-21T16:04:54.520Z,7.62
2018-12-21T16:06:47.328Z,7.67
2018-12-21T16:07:47.244Z,7.66
2018-12-21T16:09:39.999Z,7.63
2018-12-21T16:10:39.924Z,7.57
2018-12-21T16:12:32.961Z,7.62
2018-12-21T16:13:33.107Z,7.67
2018-12-21T16:15:26.421Z,7.66
2018-12-21T16:16:26.705Z,7.66
2018-12-21T16:18:18.973Z,7.63
2018-12-21T16:19:18.996Z,7.62
2018-12-21T16:21:11.816Z,7.70
2018-12-21T16:22:11.760Z,7.73
2018-12-21T16:24:06.998Z,7.70
2018-12-21T16:25:04.778Z,7.74
2018-12-21T16:26:58.250Z,7.73
2018-12-21T16:27:57.310Z,7.76
2018-12-21T16:29:50.631Z,7.84
2018-12-21T16:30:50.432Z,7.73
2018-12-21T16:32:43.820Z,7.77
2018-12-21T16:33:43.888Z,7.84
2018-12-21T16:35:36.931Z,7.81
2018-12-21T16:36:36.732Z,7.82
2018-12-21T16:38:29.655Z,7.84
2018-12-21T16:39:29.494Z,7.82
2018-12-21T16:41:22.298Z,7.84
2018-12-21T16:42:22.130Z,7.82
2018-12-21T16:44:14.818Z,7.82
2018-12-21T16:45:14.797Z,7.84
2018-12-21T16:47:07.706Z,7.79
2018-12-21T16:48:07.702Z,7.82
2018-12-21T16:50:00.456Z,7.84
2018-12-21T16:51:00.387Z,7.81
2018-12-21T16:52:53.410Z,7.76
2018-12-21T16:53:53.130Z,7.85
2018-12-21T16:55:46.071Z,7.82
2018-12-21T16:56:46.045Z,7.81
2018-12-21T16:58:38.788Z,7.79
2018-12-21T16:59:39.159Z,7.81
2018-12-21T17:01:31.506Z,7.91
2018-12-21T17:02:31.566Z,7.82
2018-12-21T17:04:24.219Z,7.89
2018-12-21T17:05:24.176Z,7.94
2018-12-21T17:07:17.106Z,7.89
2018-12-21T17:08:17.135Z,7.89
2018-12-21T17:10:10.003Z,7.86
2018-12-21T17:11:09.669Z,7.92
2018-12-21T17:13:02.436Z,7.91
2018-12-21T17:14:02.364Z,7.92
2018-12-21T17:15:55.153Z,7.89
2018-12-21T17:16:55.058Z,7.81
2018-12-21T17:18:48.960Z,7.99
2018-12-21T17:19:49.012Z,7.85
2018-12-21T17:21:41.681Z,7.86
2018-12-21T17:22:41.602Z,7.89
2018-12-21T17:24:34.366Z,7.95
2018-12-21T17:25:34.291Z,7.94
2018-12-21T17:27:27.102Z,7.88
2018-12-21T17:28:27.024Z,7.88
2018-12-21T17:30:19.845Z,7.89
2018-12-21T17:31:19.794Z,7.94
2018-12-21T17:33:12.570Z,7.99
2018-12-21T17:34:12.482Z,7.95
2018-12-21T17:36:05.247Z,7.94
2018-12-21T17:37:05.174Z,7.92
2018-12-21T17:38:57.950Z,7.92
2018-12-21T17:39:57.873Z,7.95
2018-12-21T17:41:50.644Z,8.02
2018-12-21T17:42:50.562Z,7.96
2018-12-21T17:44:43.334Z,7.95
2018-12-21T17:45:43.265Z,8.00
2018-12-21T17:47:36.032Z,7.95
2018-12-21T17:48:35.952Z,7.95
2018-12-21T17:50:28.729Z,7.99
2018-12-21T17:51:28.655Z,7.88
2018-12-21T17:53:21.430Z,7.99
2018-12-21T17:54:21.347Z,7.99
2018-12-21T17:56:14.112Z,7.96
2018-12-21T17:57:14.074Z,7.99
2018-12-21T17:59:06.954Z,7.95
2018-12-21T18:00:06.749Z,8.00
2018-12-21T18:01:59.611Z,8.03
2018-12-21T18:02:59.437Z,8.00
2018-12-21T18:04:52.215Z,8.00
2018-12-21T18:05:52.143Z,8.02
2018-12-21T18:07:44.980Z,8.13
2018-12-21T18:08:45.010Z,8.13
2018-12-21T18:10:37.731Z,8.09
2018-12-21T18:11:37.627Z,8.09
2018-12-21T18:13:30.756Z,8.06
2018-12-21T18:14:30.553Z,8.13
2018-12-21T18:16:23.812Z,8.21
2018-12-21T18:17:23.771Z,8.14
2018-12-21T18:19:16.534Z,8.27
2018-12-21T18:20:16.462Z,8.27
2018-12-21T18:22:09.237Z,8.28
2018-12-21T18:23:09.163Z,8.36
2018-12-21T18:25:01.949Z,8.49
2018-12-21T18:26:01.860Z,8.50
2018-12-21T18:27:54.652Z,8.57
2018-12-21T18:28:54.559Z,8.63
2018-12-21T18:30:47.540Z,8.58
2018-12-21T18:31:47.477Z,8.57
2018-12-21T18:33:40.268Z,8.61
2018-12-21T18:34:40.170Z,8.58
2018-12-21T18:36:32.945Z,8.68
2018-12-21T18:37:32.868Z,8.61
2018-12-21T18:39:25.697Z,8.70
2018-12-21T18:40:25.594Z,8.68
2018-12-21T18:42:18.363Z,8.71
2018-12-21T18:43:18.301Z,8.73
2018-12-21T18:45:11.189Z,8.82
2018-12-21T18:46:10.994Z,8.83
2018-12-21T18:48:03.784Z,8.89
2018-12-21T18:49:03.703Z,8.88
2018-12-21T18:50:56.504Z,9.01
2018-12-21T18:51:56.407Z,9.04
2018-12-21T18:53:49.195Z,9.01
2018-12-21T18:54:49.108Z,9.04
2018-12-21T18:56:47.232Z,9.20
2018-12-21T18:57:41.888Z,9.15
2018-12-21T18:59:34.677Z,9.23
2018-12-21T19:00:34.589Z,9.16
2018-12-21T19:02:27.343Z,9.22
2018-12-21T19:03:27.274Z,9.38
2018-12-21T19:05:20.044Z,9.40
2018-12-21T19:06:19.977Z,9.35
2018-12-21T19:08:12.747Z,9.42
2018-12-21T19:09:12.651Z,9.48